sensor_id;sensor_type;location;lat;lon;timestamp;P1;durP1;ratioP1;P2;durP2;ratioP2
1977;SDS011;989;53.016;8.346;2022-09-06T00:00:07;12.70;;;4.97;;
1977;SDS011;989;53.016;8.346;2022-09-06T00:02:39;6.80;;;5.03;;
1977;SDS011;989;53.016;8.346;2022-09-06T00:05:07;6.43;;;5.30;;
1977;SDS011;989;53.016;8.346;2022-09-06T00:07:35;9.20;;;5.20;;
1977;SDS011;989;53.016;8.346;2022-09-06T00:10:02;6.87;;;4.80;;
1977;SDS011;989;53.016;8.346;2022-09-06T00:12:29;6.13;;;4.70;;
1977;SDS011;989;53.016;8.346;2022-09-06T00:14:55;5.47;;;4.80;;
1977;SDS011;989;53.016;8.346;2022-09-06T00:17:21;7.70;;;5.20;;
1977;SDS011;989;53.016;8.346;2022-09-06T00:19:47;7.50;;;6.03;;
1977;SDS011;989;53.016;8.346;2022-09-06T00:22:12;7.07;;;5.83;;
1977;SDS011;989;53.016;8.346;2022-09-06T00:24:38;8.67;;;5.87;;
1977;SDS011;989;53.016;8.346;2022-09-06T00:27:04;6.67;;;5.40;;
1977;SDS011;989;53.016;8.346;2022-09-06T00:29:31;7.50;;;5.30;;
1977;SDS011;989;53.016;8.346;2022-09-06T00:31:58;9.20;;;5.90;;
1977;SDS011;989;53.016;8.346;2022-09-06T00:34:24;9.07;;;5.27;;
1977;SDS011;989;53.016;8.346;2022-09-06T00:36:50;6.40;;;5.07;;
1977;SDS011;989;53.016;8.346;2022-09-06T00:39:16;8.40;;;5.80;;
1977;SDS011;989;53.016;8.346;2022-09-06T00:41:42;7.00;;;6.00;;
1977;SDS011;989;53.016;8.346;2022-09-06T00:44:07;10.10;;;5.87;;
1977;SDS011;989;53.016;8.346;2022-09-06T00:46:33;14.40;;;5.97;;
1977;SDS011;989;53.016;8.346;2022-09-06T00:49:02;7.73;;;5.90;;
1977;SDS011;989;53.016;8.346;2022-09-06T00:51:40;9.23;;;6.10;;
1977;SDS011;989;53.016;8.346;2022-09-06T00:54:07;6.73;;;5.03;;
1977;SDS011;989;53.016;8.346;2022-09-06T00:56:34;7.20;;;5.67;;
1977;SDS011;989;53.016;8.346;2022-09-06T00:59:05;8.87;;;6.57;;
1977;SDS011;989;53.016;8.346;2022-09-06T01:01:31;9.13;;;6.73;;
1977;SDS011;989;53.016;8.346;2022-09-06T01:03:57;8.80;;;5.87;;
1977;SDS011;989;53.016;8.346;2022-09-06T01:06:25;7.50;;;6.00;;
1977;SDS011;989;53.016;8.346;2022-09-06T01:12:03;10.57;;;7.07;;
1977;SDS011;989;53.016;8.346;2022-09-06T01:15:10;9.20;;;7.30;;
1977;SDS011;989;53.016;8.346;2022-09-06T01:20:44;12.70;;;5.83;;
1977;SDS011;989;53.016;8.346;2022-09-06T01:38:20;12.20;;;6.93;;
1977;SDS011;989;53.016;8.346;2022-09-06T01:40:45;8.27;;;5.77;;
1977;SDS011;989;53.016;8.346;2022-09-06T01:43:13;10.10;;;5.60;;
1977;SDS011;989;53.016;8.346;2022-09-06T01:48:35;8.20;;;5.70;;
1977;SDS011;989;53.016;8.346;2022-09-06T01:57:27;7.60;;;6.53;;
1977;SDS011;989;53.016;8.346;2022-09-06T02:00:17;9.27;;;6.60;;
1977;SDS011;989;53.016;8.346;2022-09-06T02:02:49;7.57;;;6.07;;
1977;SDS011;989;53.016;8.346;2022-09-06T02:08:16;9.57;;;6.30;;
1977;SDS011;989;53.016;8.346;2022-09-06T02:10:57;11.13;;;7.80;;
1977;SDS011;989;53.016;8.346;2022-09-06T02:13:26;8.93;;;6.40;;
1977;SDS011;989;53.016;8.346;2022-09-06T02:16:12;8.30;;;6.13;;
1977;SDS011;989;53.016;8.346;2022-09-06T02:18:43;11.43;;;6.80;;
1977;SDS011;989;53.016;8.346;2022-09-06T02:21:21;10.33;;;5.90;;
1977;SDS011;989;53.016;8.346;2022-09-06T02:23:52;8.23;;;6.33;;
1977;SDS011;989;53.016;8.346;2022-09-06T02:26:24;13.10;;;6.73;;
1977;SDS011;989;53.016;8.346;2022-09-06T02:28:53;13.50;;;6.30;;
1977;SDS011;989;53.016;8.346;2022-09-06T02:31:22;8.20;;;5.60;;
1977;SDS011;989;53.016;8.346;2022-09-06T02:33:59;11.70;;;6.93;;
1977;SDS011;989;53.016;8.346;2022-09-06T02:36:25;8.30;;;6.17;;
1977;SDS011;989;53.016;8.346;2022-09-06T02:38:52;10.50;;;6.20;;
1977;SDS011;989;53.016;8.346;2022-09-06T02:41:19;6.13;;;5.20;;
1977;SDS011;989;53.016;8.346;2022-09-06T02:43:47;14.03;;;6.70;;
1977;SDS011;989;53.016;8.346;2022-09-06T02:46:12;9.50;;;7.00;;
1977;SDS011;989;53.016;8.346;2022-09-06T02:48:38;11.03;;;6.57;;
1977;SDS011;989;53.016;8.346;2022-09-06T02:51:05;9.37;;;6.40;;
1977;SDS011;989;53.016;8.346;2022-09-06T02:53:32;9.27;;;7.00;;
1977;SDS011;989;53.016;8.346;2022-09-06T02:55:58;9.47;;;7.70;;
1977;SDS011;989;53.016;8.346;2022-09-06T02:58:25;13.20;;;7.13;;
1977;SDS011;989;53.016;8.346;2022-09-06T03:00:51;11.43;;;7.30;;
1977;SDS011;989;53.016;8.346;2022-09-06T03:03:17;8.43;;;6.37;;
1977;SDS011;989;53.016;8.346;2022-09-06T03:05:51;10.60;;;6.70;;
1977;SDS011;989;53.016;8.346;2022-09-06T03:08:18;12.33;;;6.50;;
1977;SDS011;989;53.016;8.346;2022-09-06T03:10:53;11.33;;;6.47;;
1977;SDS011;989;53.016;8.346;2022-09-06T03:13:20;11.30;;;7.77;;
1977;SDS011;989;53.016;8.346;2022-09-06T03:15:51;9.27;;;6.50;;
1977;SDS011;989;53.016;8.346;2022-09-06T03:18:26;7.30;;;6.43;;
1977;SDS011;989;53.016;8.346;2022-09-06T03:20:54;12.20;;;7.20;;
1977;SDS011;989;53.016;8.346;2022-09-06T03:23:21;8.80;;;6.07;;
1977;SDS011;989;53.016;8.346;2022-09-06T03:25:49;8.47;;;6.63;;
1977;SDS011;989;53.016;8.346;2022-09-06T03:28:16;9.03;;;6.50;;
1977;SDS011;989;53.016;8.346;2022-09-06T03:30:46;10.63;;;6.37;;
1977;SDS011;989;53.016;8.346;2022-09-06T03:33:13;6.53;;;5.67;;
1977;SDS011;989;53.016;8.346;2022-09-06T03:35:41;8.90;;;7.07;;
1977;SDS011;989;53.016;8.346;2022-09-06T03:38:13;12.60;;;5.77;;
1977;SDS011;989;53.016;8.346;2022-09-06T03:40:39;10.30;;;7.00;;
1977;SDS011;989;53.016;8.346;2022-09-06T03:43:04;7.43;;;5.83;;
1977;SDS011;989;53.016;8.346;2022-09-06T03:45:30;8.37;;;6.37;;
1977;SDS011;989;53.016;8.346;2022-09-06T03:47:56;7.40;;;5.87;;
1977;SDS011;989;53.016;8.346;2022-09-06T03:50:21;7.67;;;5.77;;
1977;SDS011;989;53.016;8.346;2022-09-06T03:52:47;7.77;;;5.83;;
1977;SDS011;989;53.016;8.346;2022-09-06T03:55:12;13.03;;;6.73;;
1977;SDS011;989;53.016;8.346;2022-09-06T03:57:38;9.10;;;6.47;;
1977;SDS011;989;53.016;8.346;2022-09-06T04:00:04;9.70;;;6.50;;
1977;SDS011;989;53.016;8.346;2022-09-06T04:02:30;8.30;;;6.07;;
1977;SDS011;989;53.016;8.346;2022-09-06T04:04:55;8.37;;;6.20;;
1977;SDS011;989;53.016;8.346;2022-09-06T04:07:21;10.70;;;6.07;;
1977;SDS011;989;53.016;8.346;2022-09-06T04:09:47;8.83;;;7.20;;
1977;SDS011;989;53.016;8.346;2022-09-06T04:12:13;10.70;;;6.53;;
1977;SDS011;989;53.016;8.346;2022-09-06T04:14:39;7.23;;;6.13;;
1977;SDS011;989;53.016;8.346;2022-09-06T04:17:04;12.77;;;6.63;;
1977;SDS011;989;53.016;8.346;2022-09-06T04:19:30;7.30;;;6.03;;
1977;SDS011;989;53.016;8.346;2022-09-06T04:21:56;10.77;;;6.53;;
1977;SDS011;989;53.016;8.346;2022-09-06T04:24:21;7.37;;;6.30;;
1977;SDS011;989;53.016;8.346;2022-09-06T04:26:47;12.43;;;6.77;;
1977;SDS011;989;53.016;8.346;2022-09-06T04:29:12;11.10;;;7.20;;
1977;SDS011;989;53.016;8.346;2022-09-06T04:31:38;10.33;;;6.90;;
1977;SDS011;989;53.016;8.346;2022-09-06T04:34:04;6.47;;;5.83;;
1977;SDS011;989;53.016;8.346;2022-09-06T04:36:30;7.93;;;5.87;;
1977;SDS011;989;53.016;8.346;2022-09-06T04:38:55;11.47;;;6.90;;
1977;SDS011;989;53.016;8.346;2022-09-06T04:41:21;9.00;;;6.13;;
1977;SDS011;989;53.016;8.346;2022-09-06T04:43:46;7.03;;;5.93;;
1977;SDS011;989;53.016;8.346;2022-09-06T04:48:46;10.67;;;6.20;;
1977;SDS011;989;53.016;8.346;2022-09-06T04:51:13;9.57;;;7.40;;
1977;SDS011;989;53.016;8.346;2022-09-06T04:53:38;9.50;;;6.33;;
1977;SDS011;989;53.016;8.346;2022-09-06T04:56:04;8.93;;;6.40;;
1977;SDS011;989;53.016;8.346;2022-09-06T04:58:30;10.10;;;6.57;;
1977;SDS011;989;53.016;8.346;2022-09-06T05:00:56;9.93;;;6.10;;
1977;SDS011;989;53.016;8.346;2022-09-06T05:03:22;11.43;;;5.73;;
1977;SDS011;989;53.016;8.346;2022-09-06T05:05:47;9.07;;;6.67;;
1977;SDS011;989;53.016;8.346;2022-09-06T05:08:13;11.23;;;6.93;;
1977;SDS011;989;53.016;8.346;2022-09-06T05:10:39;13.13;;;6.07;;
1977;SDS011;989;53.016;8.346;2022-09-06T05:13:04;10.30;;;5.90;;
1977;SDS011;989;53.016;8.346;2022-09-06T05:15:30;9.03;;;6.37;;
1977;SDS011;989;53.016;8.346;2022-09-06T05:18:03;7.03;;;6.33;;
1977;SDS011;989;53.016;8.346;2022-09-06T05:20:29;9.80;;;6.60;;
1977;SDS011;989;53.016;8.346;2022-09-06T05:22:55;19.47;;;6.33;;
1977;SDS011;989;53.016;8.346;2022-09-06T05:25:21;8.73;;;6.20;;
1977;SDS011;989;53.016;8.346;2022-09-06T05:27:47;11.30;;;7.13;;
1977;SDS011;989;53.016;8.346;2022-09-06T05:30:12;16.57;;;7.57;;
1977;SDS011;989;53.016;8.346;2022-09-06T05:32:39;11.47;;;7.50;;
1977;SDS011;989;53.016;8.346;2022-09-06T05:35:04;12.37;;;7.07;;
1977;SDS011;989;53.016;8.346;2022-09-06T05:37:30;12.93;;;6.57;;
1977;SDS011;989;53.016;8.346;2022-09-06T05:39:56;12.63;;;6.50;;
1977;SDS011;989;53.016;8.346;2022-09-06T05:42:24;10.30;;;6.70;;
1977;SDS011;989;53.016;8.346;2022-09-06T05:44:49;12.30;;;6.30;;
1977;SDS011;989;53.016;8.346;2022-09-06T05:47:15;8.07;;;7.07;;
1977;SDS011;989;53.016;8.346;2022-09-06T05:49:41;7.73;;;5.80;;
1977;SDS011;989;53.016;8.346;2022-09-06T05:52:06;8.73;;;6.40;;
1977;SDS011;989;53.016;8.346;2022-09-06T05:54:32;9.20;;;6.87;;
1977;SDS011;989;53.016;8.346;2022-09-06T05:56:58;7.10;;;5.80;;
1977;SDS011;989;53.016;8.346;2022-09-06T05:59:23;9.93;;;5.70;;
1977;SDS011;989;53.016;8.346;2022-09-06T06:01:50;9.20;;;6.37;;
1977;SDS011;989;53.016;8.346;2022-09-06T06:04:17;10.87;;;6.57;;
1977;SDS011;989;53.016;8.346;2022-09-06T06:06:44;6.80;;;5.30;;
1977;SDS011;989;53.016;8.346;2022-09-06T06:09:11;14.80;;;6.40;;
1977;SDS011;989;53.016;8.346;2022-09-06T06:11:37;9.00;;;6.20;;
1977;SDS011;989;53.016;8.346;2022-09-06T06:14:03;16.83;;;7.10;;
1977;SDS011;989;53.016;8.346;2022-09-06T06:16:29;7.57;;;5.90;;
1977;SDS011;989;53.016;8.346;2022-09-06T06:18:55;9.17;;;6.53;;
1977;SDS011;989;53.016;8.346;2022-09-06T06:21:25;11.30;;;5.80;;
1977;SDS011;989;53.016;8.346;2022-09-06T06:23:54;8.27;;;5.53;;
1977;SDS011;989;53.016;8.346;2022-09-06T06:26:22;14.00;;;6.03;;
1977;SDS011;989;53.016;8.346;2022-09-06T06:28:50;13.47;;;6.20;;
1977;SDS011;989;53.016;8.346;2022-09-06T06:31:16;6.80;;;6.10;;
1977;SDS011;989;53.016;8.346;2022-09-06T06:33:43;8.20;;;5.67;;
1977;SDS011;989;53.016;8.346;2022-09-06T06:38:37;9.87;;;7.33;;
1977;SDS011;989;53.016;8.346;2022-09-06T06:41:06;10.90;;;6.27;;
1977;SDS011;989;53.016;8.346;2022-09-06T06:43:34;7.60;;;5.50;;
1977;SDS011;989;53.016;8.346;2022-09-06T06:46:05;13.63;;;6.60;;
1977;SDS011;989;53.016;8.346;2022-09-06T06:48:34;10.80;;;6.70;;
1977;SDS011;989;53.016;8.346;2022-09-06T06:51:00;11.37;;;6.67;;
1977;SDS011;989;53.016;8.346;2022-09-06T06:53:26;10.57;;;5.97;;
1977;SDS011;989;53.016;8.346;2022-09-06T06:55:52;42.70;;;6.97;;
1977;SDS011;989;53.016;8.346;2022-09-06T06:58:18;10.90;;;6.37;;
1977;SDS011;989;53.016;8.346;2022-09-06T07:00:44;14.43;;;5.80;;
1977;SDS011;989;53.016;8.346;2022-09-06T07:03:10;10.63;;;5.80;;
1977;SDS011;989;53.016;8.346;2022-09-06T07:05:37;6.67;;;5.60;;
1977;SDS011;989;53.016;8.346;2022-09-06T07:08:04;6.30;;;5.17;;
1977;SDS011;989;53.016;8.346;2022-09-06T07:10:31;8.20;;;5.50;;
1977;SDS011;989;53.016;8.346;2022-09-06T07:12:57;7.30;;;5.00;;
1977;SDS011;989;53.016;8.346;2022-09-06T07:15:23;6.70;;;5.37;;
1977;SDS011;989;53.016;8.346;2022-09-06T07:17:49;11.83;;;5.50;;
1977;SDS011;989;53.016;8.346;2022-09-06T07:20:17;6.57;;;4.73;;
1977;SDS011;989;53.016;8.346;2022-09-06T07:22:44;13.53;;;5.60;;
1977;SDS011;989;53.016;8.346;2022-09-06T07:25:10;8.40;;;5.10;;
1977;SDS011;989;53.016;8.346;2022-09-06T07:27:37;8.00;;;5.07;;
1977;SDS011;989;53.016;8.346;2022-09-06T07:30:04;8.43;;;4.80;;
1977;SDS011;989;53.016;8.346;2022-09-06T07:32:33;9.80;;;5.50;;
1977;SDS011;989;53.016;8.346;2022-09-06T07:34:58;7.13;;;5.10;;
1977;SDS011;989;53.016;8.346;2022-09-06T07:37:24;6.07;;;5.20;;
1977;SDS011;989;53.016;8.346;2022-09-06T07:39:50;18.70;;;5.70;;
1977;SDS011;989;53.016;8.346;2022-09-06T07:42:15;7.73;;;4.53;;
1977;SDS011;989;53.016;8.346;2022-09-06T07:44:42;7.60;;;5.10;;
1977;SDS011;989;53.016;8.346;2022-09-06T07:47:08;11.10;;;4.77;;
1977;SDS011;989;53.016;8.346;2022-09-06T07:49:34;18.23;;;5.30;;
1977;SDS011;989;53.016;8.346;2022-09-06T07:52:00;15.03;;;5.50;;
1977;SDS011;989;53.016;8.346;2022-09-06T07:54:25;9.67;;;5.80;;
1977;SDS011;989;53.016;8.346;2022-09-06T07:56:51;8.80;;;4.80;;
1977;SDS011;989;53.016;8.346;2022-09-06T07:59:17;8.53;;;5.13;;
1977;SDS011;989;53.016;8.346;2022-09-06T08:01:42;7.37;;;5.07;;
1977;SDS011;989;53.016;8.346;2022-09-06T08:04:11;10.73;;;5.10;;
1977;SDS011;989;53.016;8.346;2022-09-06T08:06:39;10.97;;;5.37;;
1977;SDS011;989;53.016;8.346;2022-09-06T08:09:08;6.90;;;5.03;;
1977;SDS011;989;53.016;8.346;2022-09-06T08:11:35;9.00;;;5.60;;
1977;SDS011;989;53.016;8.346;2022-09-06T08:14:02;12.93;;;5.07;;
1977;SDS011;989;53.016;8.346;2022-09-06T08:16:30;14.83;;;5.00;;
1977;SDS011;989;53.016;8.346;2022-09-06T08:18:59;11.50;;;5.40;;
1977;SDS011;989;53.016;8.346;2022-09-06T08:21:29;10.03;;;4.30;;
1977;SDS011;989;53.016;8.346;2022-09-06T08:24:00;12.23;;;4.37;;
1977;SDS011;989;53.016;8.346;2022-09-06T08:26:29;10.40;;;5.30;;
1977;SDS011;989;53.016;8.346;2022-09-06T08:29:00;7.13;;;5.27;;
1977;SDS011;989;53.016;8.346;2022-09-06T08:31:30;12.33;;;4.97;;
1977;SDS011;989;53.016;8.346;2022-09-06T08:33:58;13.43;;;6.07;;
1977;SDS011;989;53.016;8.346;2022-09-06T08:36:24;7.63;;;4.80;;
1977;SDS011;989;53.016;8.346;2022-09-06T08:38:53;25.60;;;4.90;;
1977;SDS011;989;53.016;8.346;2022-09-06T08:41:26;8.20;;;4.57;;
1977;SDS011;989;53.016;8.346;2022-09-06T08:43:58;7.03;;;5.70;;
1977;SDS011;989;53.016;8.346;2022-09-06T08:46:37;10.40;;;4.83;;
1977;SDS011;989;53.016;8.346;2022-09-06T08:49:06;11.87;;;4.93;;
1977;SDS011;989;53.016;8.346;2022-09-06T08:51:50;8.10;;;5.70;;
1977;SDS011;989;53.016;8.346;2022-09-06T08:54:54;11.77;;;4.77;;
1977;SDS011;989;53.016;8.346;2022-09-06T08:58:07;13.47;;;5.30;;
1977;SDS011;989;53.016;8.346;2022-09-06T09:00:47;19.93;;;5.97;;
1977;SDS011;989;53.016;8.346;2022-09-06T09:03:23;13.53;;;4.77;;
1977;SDS011;989;53.016;8.346;2022-09-06T09:05:56;8.00;;;4.40;;
1977;SDS011;989;53.016;8.346;2022-09-06T09:11:31;5.83;;;4.50;;
1977;SDS011;989;53.016;8.346;2022-09-06T09:16:51;7.80;;;5.20;;
1977;SDS011;989;53.016;8.346;2022-09-06T09:19:19;7.30;;;4.70;;
1977;SDS011;989;53.016;8.346;2022-09-06T09:21:45;18.93;;;5.00;;
1977;SDS011;989;53.016;8.346;2022-09-06T09:24:11;7.67;;;4.53;;
1977;SDS011;989;53.016;8.346;2022-09-06T09:29:29;7.00;;;4.07;;
1977;SDS011;989;53.016;8.346;2022-09-06T09:31:55;8.13;;;5.00;;
1977;SDS011;989;53.016;8.346;2022-09-06T09:39:49;10.63;;;5.10;;
1977;SDS011;989;53.016;8.346;2022-09-06T09:42:23;9.47;;;5.03;;
1977;SDS011;989;53.016;8.346;2022-09-06T09:44:53;9.33;;;5.10;;
1977;SDS011;989;53.016;8.346;2022-09-06T09:49:52;12.20;;;5.07;;
1977;SDS011;989;53.016;8.346;2022-09-06T09:52:29;6.37;;;4.53;;
1977;SDS011;989;53.016;8.346;2022-09-06T09:54:59;7.67;;;5.07;;
1977;SDS011;989;53.016;8.346;2022-09-06T09:57:30;10.40;;;4.60;;
1977;SDS011;989;53.016;8.346;2022-09-06T10:00:10;9.07;;;4.50;;
1977;SDS011;989;53.016;8.346;2022-09-06T10:02:38;10.50;;;5.23;;
1977;SDS011;989;53.016;8.346;2022-09-06T10:07:41;6.90;;;5.20;;
1977;SDS011;989;53.016;8.346;2022-09-06T10:10:26;9.43;;;4.80;;
1977;SDS011;989;53.016;8.346;2022-09-06T10:15:53;9.83;;;4.67;;
1977;SDS011;989;53.016;8.346;2022-09-06T10:18:39;7.90;;;5.03;;
1977;SDS011;989;53.016;8.346;2022-09-06T10:23:46;8.73;;;4.80;;
1977;SDS011;989;53.016;8.346;2022-09-06T10:26:55;6.50;;;4.73;;
1977;SDS011;989;53.016;8.346;2022-09-06T10:29:27;15.17;;;5.53;;
1977;SDS011;989;53.016;8.346;2022-09-06T10:44:17;10.93;;;4.10;;
1977;SDS011;989;53.016;8.346;2022-09-06T10:46:43;12.17;;;4.27;;
1977;SDS011;989;53.016;8.346;2022-09-06T10:49:12;7.30;;;4.47;;
1977;SDS011;989;53.016;8.346;2022-09-06T10:51:47;12.30;;;5.70;;
1977;SDS011;989;53.016;8.346;2022-09-06T10:54:20;7.13;;;4.67;;
1977;SDS011;989;53.016;8.346;2022-09-06T10:59:48;21.43;;;4.70;;
1977;SDS011;989;53.016;8.346;2022-09-06T11:05:15;7.07;;;5.10;;
1977;SDS011;989;53.016;8.346;2022-09-06T11:07:48;6.63;;;5.10;;
1977;SDS011;989;53.016;8.346;2022-09-06T11:10:35;9.60;;;4.60;;
1977;SDS011;989;53.016;8.346;2022-09-06T11:21:46;7.67;;;4.73;;
1977;SDS011;989;53.016;8.346;2022-09-06T11:24:57;7.27;;;4.70;;
1977;SDS011;989;53.016;8.346;2022-09-06T11:27:45;6.00;;;5.40;;
1977;SDS011;989;53.016;8.346;2022-09-06T11:30:18;9.07;;;4.67;;
1977;SDS011;989;53.016;8.346;2022-09-06T11:32:44;10.73;;;4.23;;
1977;SDS011;989;53.016;8.346;2022-09-06T11:35:26;7.60;;;5.00;;
1977;SDS011;989;53.016;8.346;2022-09-06T11:40:40;9.20;;;5.10;;
1977;SDS011;989;53.016;8.346;2022-09-06T11:43:16;8.70;;;4.57;;
1977;SDS011;989;53.016;8.346;2022-09-06T11:46:07;12.13;;;5.60;;
1977;SDS011;989;53.016;8.346;2022-09-06T11:48:35;11.90;;;5.70;;
1977;SDS011;989;53.016;8.346;2022-09-06T11:51:37;8.43;;;5.37;;
1977;SDS011;989;53.016;8.346;2022-09-06T11:54:22;7.83;;;5.73;;
1977;SDS011;989;53.016;8.346;2022-09-06T11:57:07;17.50;;;6.23;;
1977;SDS011;989;53.016;8.346;2022-09-06T12:02:31;15.43;;;6.23;;
1977;SDS011;989;53.016;8.346;2022-09-06T12:05:07;9.40;;;6.00;;
1977;SDS011;989;53.016;8.346;2022-09-06T12:10:57;10.23;;;6.50;;
1977;SDS011;989;53.016;8.346;2022-09-06T12:13:33;8.23;;;6.90;;
1977;SDS011;989;53.016;8.346;2022-09-06T12:16:12;15.97;;;6.30;;
1977;SDS011;989;53.016;8.346;2022-09-06T12:21:31;9.10;;;6.13;;
1977;SDS011;989;53.016;8.346;2022-09-06T12:27:13;10.43;;;6.73;;
1977;SDS011;989;53.016;8.346;2022-09-06T12:29:52;7.87;;;6.20;;
1977;SDS011;989;53.016;8.346;2022-09-06T12:35:19;11.20;;;6.77;;
1977;SDS011;989;53.016;8.346;2022-09-06T12:37:59;8.13;;;6.27;;
1977;SDS011;989;53.016;8.346;2022-09-06T12:40:31;13.90;;;6.80;;
1977;SDS011;989;53.016;8.346;2022-09-06T12:43:05;8.37;;;6.47;;
1977;SDS011;989;53.016;8.346;2022-09-06T12:45:40;8.00;;;6.50;;
1977;SDS011;989;53.016;8.346;2022-09-06T12:48:12;15.57;;;6.77;;
1977;SDS011;989;53.016;8.346;2022-09-06T12:53:56;13.27;;;6.50;;
1977;SDS011;989;53.016;8.346;2022-09-06T12:56:26;12.43;;;6.10;;
1977;SDS011;989;53.016;8.346;2022-09-06T12:59:08;11.50;;;6.33;;
1977;SDS011;989;53.016;8.346;2022-09-06T13:01:48;7.33;;;6.13;;
1977;SDS011;989;53.016;8.346;2022-09-06T13:04:28;7.40;;;5.60;;
1977;SDS011;989;53.016;8.346;2022-09-06T13:07:04;13.57;;;5.80;;
1977;SDS011;989;53.016;8.346;2022-09-06T13:09:33;12.50;;;5.67;;
1977;SDS011;989;53.016;8.346;2022-09-06T13:12:03;8.80;;;6.20;;
1977;SDS011;989;53.016;8.346;2022-09-06T13:14:40;8.53;;;6.27;;
1977;SDS011;989;53.016;8.346;2022-09-06T13:17:05;7.30;;;5.07;;
1977;SDS011;989;53.016;8.346;2022-09-06T13:19:32;8.93;;;5.40;;
1977;SDS011;989;53.016;8.346;2022-09-06T13:22:01;7.20;;;5.10;;
1977;SDS011;989;53.016;8.346;2022-09-06T13:27:00;13.50;;;6.30;;
1977;SDS011;989;53.016;8.346;2022-09-06T13:30:05;8.80;;;5.73;;
1977;SDS011;989;53.016;8.346;2022-09-06T13:32:34;8.00;;;4.70;;
1977;SDS011;989;53.016;8.346;2022-09-06T13:35:09;11.50;;;6.13;;
1977;SDS011;989;53.016;8.346;2022-09-06T13:37:47;14.33;;;6.63;;
1977;SDS011;989;53.016;8.346;2022-09-06T13:40:35;11.63;;;5.70;;
1977;SDS011;989;53.016;8.346;2022-09-06T13:43:10;6.03;;;4.57;;
1977;SDS011;989;53.016;8.346;2022-09-06T13:45:37;6.20;;;5.10;;
1977;SDS011;989;53.016;8.346;2022-09-06T13:48:04;15.50;;;5.63;;
1977;SDS011;989;53.016;8.346;2022-09-06T13:50:30;13.40;;;6.10;;
1977;SDS011;989;53.016;8.346;2022-09-06T13:52:56;9.20;;;6.37;;
1977;SDS011;989;53.016;8.346;2022-09-06T13:55:22;11.73;;;5.53;;
1977;SDS011;989;53.016;8.346;2022-09-06T13:57:55;8.50;;;6.13;;
1977;SDS011;989;53.016;8.346;2022-09-06T14:00:20;15.00;;;6.17;;
1977;SDS011;989;53.016;8.346;2022-09-06T14:02:46;5.60;;;5.00;;
1977;SDS011;989;53.016;8.346;2022-09-06T14:05:13;6.53;;;5.30;;
1977;SDS011;989;53.016;8.346;2022-09-06T14:07:40;6.60;;;5.57;;
1977;SDS011;989;53.016;8.346;2022-09-06T14:10:06;8.23;;;5.30;;
1977;SDS011;989;53.016;8.346;2022-09-06T14:12:32;7.10;;;5.03;;
1977;SDS011;989;53.016;8.346;2022-09-06T14:14:58;7.60;;;4.80;;
1977;SDS011;989;53.016;8.346;2022-09-06T14:17:25;16.40;;;5.60;;
1977;SDS011;989;53.016;8.346;2022-09-06T14:19:51;13.13;;;5.27;;
1977;SDS011;989;53.016;8.346;2022-09-06T14:22:16;11.77;;;5.40;;
1977;SDS011;989;53.016;8.346;2022-09-06T14:24:42;8.63;;;5.63;;
1977;SDS011;989;53.016;8.346;2022-09-06T14:27:07;5.73;;;5.13;;
1977;SDS011;989;53.016;8.346;2022-09-06T14:29:33;7.70;;;4.93;;
1977;SDS011;989;53.016;8.346;2022-09-06T14:32:00;6.20;;;4.60;;
1977;SDS011;989;53.016;8.346;2022-09-06T14:34:26;7.33;;;5.63;;
1977;SDS011;989;53.016;8.346;2022-09-06T14:36:52;6.90;;;5.10;;
1977;SDS011;989;53.016;8.346;2022-09-06T14:39:18;6.97;;;5.40;;
1977;SDS011;989;53.016;8.346;2022-09-06T14:41:44;7.47;;;5.13;;
1977;SDS011;989;53.016;8.346;2022-09-06T14:44:10;7.60;;;6.00;;
1977;SDS011;989;53.016;8.346;2022-09-06T14:46:36;12.57;;;4.80;;
1977;SDS011;989;53.016;8.346;2022-09-06T14:49:03;6.53;;;4.43;;
1977;SDS011;989;53.016;8.346;2022-09-06T14:51:32;9.27;;;5.13;;
1977;SDS011;989;53.016;8.346;2022-09-06T14:54:05;7.73;;;4.27;;
1977;SDS011;989;53.016;8.346;2022-09-06T14:56:33;7.83;;;5.10;;
1977;SDS011;989;53.016;8.346;2022-09-06T14:59:01;8.03;;;4.67;;
1977;SDS011;989;53.016;8.346;2022-09-06T15:01:28;7.13;;;4.30;;
1977;SDS011;989;53.016;8.346;2022-09-06T15:03:59;7.17;;;4.67;;
1977;SDS011;989;53.016;8.346;2022-09-06T15:06:27;7.40;;;4.90;;
1977;SDS011;989;53.016;8.346;2022-09-06T15:08:55;11.33;;;5.03;;
1977;SDS011;989;53.016;8.346;2022-09-06T15:11:26;8.60;;;5.23;;
1977;SDS011;989;53.016;8.346;2022-09-06T15:13:59;8.37;;;4.50;;
1977;SDS011;989;53.016;8.346;2022-09-06T15:16:30;5.80;;;4.93;;
1977;SDS011;989;53.016;8.346;2022-09-06T15:18:56;4.90;;;4.20;;
1977;SDS011;989;53.016;8.346;2022-09-06T15:21:22;6.40;;;4.97;;
1977;SDS011;989;53.016;8.346;2022-09-06T15:23:50;8.90;;;5.37;;
1977;SDS011;989;53.016;8.346;2022-09-06T15:26:17;5.33;;;4.20;;
1977;SDS011;989;53.016;8.346;2022-09-06T15:28:43;7.30;;;4.27;;
1977;SDS011;989;53.016;8.346;2022-09-06T15:31:09;6.20;;;4.30;;
1977;SDS011;989;53.016;8.346;2022-09-06T15:33:37;7.10;;;4.13;;
1977;SDS011;989;53.016;8.346;2022-09-06T15:36:05;8.07;;;4.70;;
1977;SDS011;989;53.016;8.346;2022-09-06T15:38:33;6.90;;;4.23;;
1977;SDS011;989;53.016;8.346;2022-09-06T15:41:06;8.57;;;4.60;;
1977;SDS011;989;53.016;8.346;2022-09-06T15:43:35;6.30;;;4.27;;
1977;SDS011;989;53.016;8.346;2022-09-06T15:46:05;23.30;;;5.00;;
1977;SDS011;989;53.016;8.346;2022-09-06T15:48:38;11.17;;;4.63;;
1977;SDS011;989;53.016;8.346;2022-09-06T15:51:16;9.33;;;5.53;;
1977;SDS011;989;53.016;8.346;2022-09-06T15:53:44;5.50;;;4.40;;
1977;SDS011;989;53.016;8.346;2022-09-06T15:56:11;13.40;;;5.07;;
1977;SDS011;989;53.016;8.346;2022-09-06T15:58:39;5.47;;;4.33;;
1977;SDS011;989;53.016;8.346;2022-09-06T16:01:12;7.70;;;4.57;;
1977;SDS011;989;53.016;8.346;2022-09-06T16:03:41;8.20;;;4.93;;
1977;SDS011;989;53.016;8.346;2022-09-06T16:06:11;6.30;;;4.60;;
1977;SDS011;989;53.016;8.346;2022-09-06T16:08:46;6.37;;;4.30;;
1977;SDS011;989;53.016;8.346;2022-09-06T16:11:15;24.27;;;4.33;;
1977;SDS011;989;53.016;8.346;2022-09-06T16:13:42;7.27;;;3.87;;
1977;SDS011;989;53.016;8.346;2022-09-06T16:16:11;9.03;;;4.27;;
1977;SDS011;989;53.016;8.346;2022-09-06T16:18:39;7.37;;;4.47;;
1977;SDS011;989;53.016;8.346;2022-09-06T16:21:11;13.27;;;4.70;;
1977;SDS011;989;53.016;8.346;2022-09-06T16:23:42;5.57;;;4.13;;
1977;SDS011;989;53.016;8.346;2022-09-06T16:26:21;15.23;;;4.03;;
1977;SDS011;989;53.016;8.346;2022-09-06T16:28:49;7.93;;;4.50;;
1977;SDS011;989;53.016;8.346;2022-09-06T16:31:16;8.07;;;4.90;;
1977;SDS011;989;53.016;8.346;2022-09-06T16:33:43;5.33;;;4.37;;
1977;SDS011;989;53.016;8.346;2022-09-06T16:36:10;6.97;;;4.10;;
1977;SDS011;989;53.016;8.346;2022-09-06T16:38:38;4.20;;;3.63;;
1977;SDS011;989;53.016;8.346;2022-09-06T16:43:53;9.10;;;4.43;;
1977;SDS011;989;53.016;8.346;2022-09-06T16:46:23;7.43;;;4.47;;
1977;SDS011;989;53.016;8.346;2022-09-06T16:48:56;13.03;;;4.03;;
1977;SDS011;989;53.016;8.346;2022-09-06T16:51:29;14.07;;;4.27;;
1977;SDS011;989;53.016;8.346;2022-09-06T16:53:55;9.37;;;4.57;;
1977;SDS011;989;53.016;8.346;2022-09-06T16:56:23;6.87;;;4.47;;
1977;SDS011;989;53.016;8.346;2022-09-06T16:58:55;14.03;;;4.40;;
1977;SDS011;989;53.016;8.346;2022-09-06T17:01:23;8.20;;;4.53;;
1977;SDS011;989;53.016;8.346;2022-09-06T17:03:50;9.03;;;4.30;;
1977;SDS011;989;53.016;8.346;2022-09-06T17:06:16;10.53;;;4.13;;
1977;SDS011;989;53.016;8.346;2022-09-06T17:08:43;9.03;;;4.43;;
1977;SDS011;989;53.016;8.346;2022-09-06T17:11:13;17.20;;;4.87;;
1977;SDS011;989;53.016;8.346;2022-09-06T17:13:42;11.30;;;4.50;;
1977;SDS011;989;53.016;8.346;2022-09-06T17:16:10;8.63;;;5.07;;
1977;SDS011;989;53.016;8.346;2022-09-06T17:18:56;6.43;;;4.37;;
1977;SDS011;989;53.016;8.346;2022-09-06T17:21:24;8.93;;;5.10;;
1977;SDS011;989;53.016;8.346;2022-09-06T17:23:50;8.00;;;4.70;;
1977;SDS011;989;53.016;8.346;2022-09-06T17:26:16;6.40;;;4.70;;
1977;SDS011;989;53.016;8.346;2022-09-06T17:28:44;10.80;;;5.30;;
1977;SDS011;989;53.016;8.346;2022-09-06T17:31:10;6.77;;;4.90;;
1977;SDS011;989;53.016;8.346;2022-09-06T17:33:36;10.33;;;5.87;;
1977;SDS011;989;53.016;8.346;2022-09-06T17:36:06;9.33;;;5.00;;